createdAt,value
2019-03-01T00:01:17.399Z,12.10
2019-03-01T00:07:57.947Z,12.70
2019-03-01T00:14:44.606Z,12.90
2019-03-01T00:21:34.743Z,12.40
2019-03-01T00:28:15.989Z,13.30
2019-03-01T00:34:36.142Z,13.70
2019-03-01T00:41:11.530Z,13.90
2019-03-01T00:47:15.849Z,13.50
2019-03-01T00:53:21.067Z,13.60
2019-03-01T00:59:25.286Z,13.20
2019-03-01T01:05:29.477Z,13.60
2019-03-01T01:11:33.710Z,13.40
2019-03-01T01:17:37.933Z,12.80
2019-03-01T01:23:42.209Z,12.20
2019-03-01T01:29:46.500Z,13.20
2019-03-01T01:35:50.818Z,12.90
2019-03-01T01:41:55.032Z,12.70
2019-03-01T01:47:59.456Z,12.90
2019-03-01T01:54:03.688Z,12.60
2019-03-01T02:00:08.539Z,11.50
2019-03-01T02:06:12.885Z,11.30
2019-03-01T02:12:17.208Z,11.20
2019-03-01T02:18:21.512Z,11.50
2019-03-01T02:24:25.757Z,11.80
2019-03-01T02:30:30.395Z,11.20
2019-03-01T02:36:36.089Z,11.70
2019-03-01T02:42:40.316Z,11.90
2019-03-01T02:48:44.598Z,12.10
2019-03-01T02:54:49.015Z,12.80
2019-03-01T03:00:53.277Z,12.50
2019-03-01T03:07:13.079Z,11.90
2019-03-01T03:13:17.279Z,11.10
2019-03-01T03:19:21.618Z,9.90
2019-03-01T03:25:25.890Z,9.30
2019-03-01T03:31:30.268Z,9.80
2019-03-01T03:37:34.568Z,9.40
2019-03-01T03:43:38.901Z,9.30
2019-03-01T03:49:43.194Z,9.30
2019-03-01T03:55:47.388Z,9.00
2019-03-01T04:01:51.778Z,9.90
2019-03-01T04:07:56.445Z,9.80
2019-03-01T04:14:00.810Z,10.20
2019-03-01T04:20:06.005Z,9.70
2019-03-01T04:26:10.279Z,9.90
2019-03-01T04:32:14.549Z,10.50
2019-03-01T04:38:18.891Z,11.50
2019-03-01T04:44:23.182Z,11.60
2019-03-01T04:50:27.451Z,11.20
2019-03-01T04:56:31.682Z,9.40
2019-03-01T05:02:35.977Z,9.00
2019-03-01T05:08:40.246Z,8.90
2019-03-01T05:14:44.659Z,10.20
2019-03-01T05:20:49.034Z,9.60
2019-03-01T05:26:53.258Z,8.60
2019-03-01T05:32:57.526Z,8.40
2019-03-01T05:39:01.812Z,8.10
2019-03-01T05:45:08.016Z,9.90
2019-03-01T05:51:12.300Z,9.50
2019-03-01T05:57:16.631Z,9.00
2019-03-01T06:03:42.130Z,8.70
2019-03-01T06:10:39.632Z,8.60
2019-03-01T06:17:33.794Z,9.40
2019-03-01T06:24:02.478Z,8.80
2019-03-01T06:30:52.042Z,9.80
2019-03-01T06:37:38.800Z,8.70
2019-03-01T06:44:01.957Z,8.00
2019-03-01T06:50:16.130Z,9.70
2019-03-01T06:56:20.415Z,8.40
2019-03-01T07:02:43.672Z,8.10
2019-03-01T07:08:47.960Z,9.10
2019-03-01T07:14:52.212Z,9.80
2019-03-01T07:20:56.553Z,9.20
2019-03-01T07:27:00.897Z,9.60
2019-03-01T07:33:05.143Z,8.40
2019-03-01T07:39:10.387Z,9.00
2019-03-01T07:45:14.835Z,8.30
2019-03-01T07:51:19.369Z,8.30
2019-03-01T07:57:23.718Z,8.40
2019-03-01T08:03:28.076Z,8.60
2019-03-01T08:09:32.397Z,8.40
2019-03-01T08:15:36.693Z,8.50
2019-03-01T08:21:42.724Z,8.20
2019-03-01T08:27:48.430Z,8.80
2019-03-01T08:33:53.010Z,9.50
2019-03-01T08:39:57.549Z,9.00
2019-03-01T08:46:01.865Z,9.80
2019-03-01T08:52:06.226Z,8.30
2019-03-01T08:58:10.572Z,8.30
2019-03-01T09:04:17.676Z,8.10
2019-03-01T09:10:20.943Z,8.10
2019-03-01T09:16:25.209Z,7.80
2019-03-01T09:22:29.455Z,7.70
2019-03-01T09:28:38.610Z,7.70
2019-03-01T09:34:39.729Z,7.80
2019-03-01T09:40:44.238Z,7.90
2019-03-01T09:46:48.429Z,7.90
2019-03-01T09:52:55.637Z,7.90
2019-03-01T09:58:58.668Z,8.10
2019-03-01T10:05:03.140Z,8.10
2019-03-01T10:11:07.338Z,8.30
2019-03-01T10:17:11.732Z,8.30
2019-03-01T10:23:15.976Z,8.40
2019-03-01T10:29:20.313Z,8.50
2019-03-01T10:35:24.503Z,8.40
2019-03-01T10:41:28.812Z,8.30
2019-03-01T10:47:33.005Z,8.40
2019-03-01T10:53:37.288Z,8.40
2019-03-01T10:59:41.475Z,8.40
2019-03-01T11:05:45.678Z,8.50
2019-03-01T11:11:49.863Z,8.70
2019-03-01T11:17:54.081Z,8.90
2019-03-01T11:23:58.351Z,9.20
2019-03-01T11:30:02.574Z,8.90
2019-03-01T11:36:06.933Z,9.00
2019-03-01T11:42:11.159Z,9.10
2019-03-01T11:48:15.677Z,9.30
2019-03-01T11:54:19.931Z,8.90
2019-03-01T12:00:24.695Z,9.70
2019-03-01T12:06:29.330Z,9.70
2019-03-01T12:12:33.903Z,9.30
2019-03-01T12:18:38.241Z,10.00
2019-03-01T12:24:42.536Z,9.80
2019-03-01T12:30:46.836Z,9.40
2019-03-01T12:36:51.151Z,10.30
2019-03-01T12:42:55.372Z,10.10
2019-03-01T12:48:59.556Z,9.50
2019-03-01T12:55:04.534Z,9.80
2019-03-01T13:01:08.760Z,10.80
2019-03-01T13:07:13.259Z,10.10
2019-03-01T13:13:18.352Z,9.70
2019-03-01T13:19:23.324Z,9.90
2019-03-01T13:25:29.314Z,9.70
2019-03-01T13:31:34.606Z,9.90
2019-03-01T13:37:38.898Z,9.10
2019-03-01T13:43:43.202Z,9.00
2019-03-01T13:49:47.532Z,8.80
2019-03-01T13:55:51.775Z,9.20
2019-03-01T14:01:56.124Z,9.50
2019-03-01T14:08:08.686Z,9.50
2019-03-01T14:14:06.266Z,9.30
2019-03-01T14:20:19.046Z,9.00
2019-03-01T14:26:19.436Z,9.10
2019-03-01T14:32:23.743Z,9.00
2019-03-01T14:38:30.080Z,9.10
2019-03-01T14:44:34.689Z,10.20
2019-03-01T14:50:38.959Z,9.70
2019-03-01T14:56:47.954Z,9.90
2019-03-01T15:03:16.460Z,10.90
2019-03-01T15:09:21.947Z,11.30
2019-03-01T15:15:29.957Z,12.30
2019-03-01T15:21:33.991Z,10.80
2019-03-01T15:27:40.180Z,10.50
2019-03-01T15:33:47.081Z,9.60
2019-03-01T15:39:51.221Z,10.10
2019-03-01T15:45:56.141Z,10.60
2019-03-01T15:52:00.452Z,9.30
2019-03-01T15:58:04.679Z,9.10
2019-03-01T16:04:08.952Z,8.90
2019-03-01T16:10:13.257Z,8.90
2019-03-01T16:16:17.656Z,8.90
2019-03-01T16:22:22.079Z,8.80
2019-03-01T16:28:27.544Z,8.90
2019-03-01T16:34:32.490Z,8.70
2019-03-01T16:40:36.803Z,8.70
2019-03-01T16:46:41.192Z,8.60
2019-03-01T16:52:45.464Z,8.60
2019-03-01T16:58:49.694Z,8.50
2019-03-01T17:04:54.037Z,8.50
2019-03-01T17:10:58.318Z,8.60
2019-03-01T17:17:02.517Z,8.50
2019-03-01T17:23:06.716Z,8.50
2019-03-01T17:29:10.932Z,8.40
2019-03-01T17:35:15.309Z,8.30
2019-03-01T17:41:19.552Z,8.40
2019-03-01T17:47:23.915Z,8.30
2019-03-01T17:53:28.199Z,8.30
2019-03-01T17:59:32.463Z,8.30
2019-03-01T18:05:37.083Z,8.20
2019-03-01T18:11:44.472Z,8.20
2019-03-01T18:17:48.962Z,8.20
2019-03-01T18:23:53.407Z,8.10
2019-03-01T18:29:57.690Z,8.00
2019-03-01T18:36:01.975Z,8.00
2019-03-01T18:42:06.189Z,8.00
2019-03-01T18:48:10.889Z,8.00
2019-03-01T18:54:15.421Z,7.90
2019-03-01T19:00:22.535Z,8.00
2019-03-01T19:06:28.682Z,8.00
2019-03-01T19:12:32.880Z,8.00
2019-03-01T19:18:38.080Z,7.90
2019-03-01T19:24:43.238Z,7.90
2019-03-01T19:30:49.097Z,7.80
2019-03-01T19:36:54.255Z,7.90
2019-03-01T19:42:58.442Z,7.90
2019-03-01T19:49:02.641Z,7.80
2019-03-01T19:55:07.973Z,7.80
2019-03-01T20:01:14.682Z,7.80
2019-03-01T20:07:19.827Z,7.90
2019-03-01T20:13:25.136Z,7.80
2019-03-01T20:19:29.432Z,7.90
2019-03-01T20:25:33.653Z,7.90
2019-03-01T20:31:40.573Z,7.80
2019-03-01T20:37:43.985Z,7.80
2019-03-01T20:43:48.236Z,7.80
2019-03-01T20:49:52.766Z,7.80
2019-03-01T20:55:56.974Z,7.80
2019-03-01T21:02:01.178Z,7.80
2019-03-01T21:08:05.361Z,7.70
2019-03-01T21:14:09.749Z,7.80
2019-03-01T21:20:15.938Z,7.80
2019-03-01T21:26:20.327Z,7.80
2019-03-01T21:32:24.488Z,7.80
2019-03-01T21:38:28.868Z,7.80
2019-03-01T21:44:33.078Z,7.80
2019-03-01T21:50:38.685Z,7.70
2019-03-01T21:56:55.381Z,7.80
2019-03-01T22:02:52.796Z,7.80
2019-03-01T22:08:55.198Z,7.80
2019-03-01T22:14:59.396Z,7.80
2019-03-01T22:21:03.830Z,7.80
2019-03-01T22:27:08.095Z,7.80
2019-03-01T22:33:12.260Z,7.70
2019-03-01T22:39:16.593Z,7.70
2019-03-01T22:45:21.613Z,7.70
2019-03-01T22:51:25.985Z,7.80
2019-03-01T22:57:30.179Z,7.80
2019-03-01T23:03:34.521Z,7.80
2019-03-01T23:09:38.713Z,7.70
2019-03-01T23:15:43.579Z,7.80
2019-03-01T23:21:48.851Z,7.70
2019-03-01T23:27:53.066Z,7.80
2019-03-01T23:33:57.332Z,7.80
2019-03-01T23:40:02.422Z,7.80
2019-03-01T23:46:06.722Z,7.90
2019-03-01T23:52:10.997Z,7.80
2019-03-01T23:58:15.885Z,7.80
